Big Glory — H9IF — position and weather

sailwx.info

Track history (hours):
 
Tides and Currents Weather Stations Pressure Air Temp Water Temp Dewpoint Dewpoint Depression Visibility Wind Speed Wind Dir Waves Ship Positions

Big Glory

Last reported at 2015-May-27 01:07 UTC. Time now 2015-Jul-02 16:30 UTC.
Position N 32°37' E 123°50'.
Warning: this ship's position is 36 days out of date.

Length 190 m; draft 6.3 m.

Type: Cargo ship. MMSI: 354285000.

Date/timePositionNaut miles runAvg speedWind from/ knotsBaromVisibWave heightAir tempDewpointWater temp
2015-May-27 01:07N 32°37' E 123°50'1811.7
2015-May-26 23:32N 32°55' E 123°48'1111.6
2015-May-26 22:34N 33°06' E 123°47'1513.3
2015-May-26 21:24N 33°21' E 123°45'1012.4
2015-May-26 20:33N 33°32' E 123°42'1712.4
2015-May-26 19:10N 33°48' E 123°35'912.8
2015-May-26 18:28N 33°56' E 123°31'1112.1
2015-May-26 17:33N 34°05' E 123°23'1312.8
2015-May-26 16:33N 34°12' E 123°11'1313.0
2015-May-26 15:33N 34°20' E 122°58'1812.9
2015-May-26 14:09N 34°32' E 122°41'1112.9
2015-May-26 13:17N 34°39' E 122°31'1412.9
2015-May-26 12:11N 34°48' E 122°17'1112.8
2015-May-26 11:21N 34°54' E 122°07'1112.8
2015-May-26 10:30N 35°01' E 121°57'1313.4
2015-May-26 09:33N 35°10' E 121°45'1414.2
2015-May-26 08:33N 35°21' E 121°34'1313.2
2015-May-26 07:34N 35°31' E 121°24'1110.5
2015-May-26 06:33N 35°39' E 121°15'1312.9
2015-May-26 05:33N 35°48' E 121°05'41 1.0
2015-May-24 13:31N 36°05' E 120°19'0 0.0
2015-May-23 16:31N 36°05' E 120°19'  
2015-May-17 14:11N 35°38' E 121°16'2910.3
2015-May-17 11:21N 35°18' E 121°43'  
Track history (hours):
 
Tides and Currents Weather Stations Pressure Air Temp Water Temp Dewpoint Dewpoint Depression Visibility Wind Speed Wind Dir Waves Ship Positions

Big Glory

Last reported at 2015-May-27 01:07 UTC. Time now 2015-Jul-02 16:30 UTC.
Position N 32°37' E 123°50'.
Warning: this ship's position is 36 days out of date.

Length 190 m; draft 6.3 m.

Type: Cargo ship. MMSI: 354285000.

Date/timePositionNaut miles runAvg speedWind from/ knotsBaromVisibWave heightAir tempDewpointWater temp
2015-May-27 01:07N 32°37' E 123°50'1811.7
2015-May-26 23:32N 32°55' E 123°48'1111.6
2015-May-26 22:34N 33°06' E 123°47'1513.3
2015-May-26 21:24N 33°21' E 123°45'1012.4
2015-May-26 20:33N 33°32' E 123°42'1712.4
2015-May-26 19:10N 33°48' E 123°35'912.8
2015-May-26 18:28N 33°56' E 123°31'1112.1
2015-May-26 17:33N 34°05' E 123°23'1312.8
2015-May-26 16:33N 34°12' E 123°11'1313.0
2015-May-26 15:33N 34°20' E 122°58'1812.9
2015-May-26 14:09N 34°32' E 122°41'1112.9
2015-May-26 13:17N 34°39' E 122°31'1412.9
2015-May-26 12:11N 34°48' E 122°17'1112.8
2015-May-26 11:21N 34°54' E 122°07'1112.8
2015-May-26 10:30N 35°01' E 121°57'1313.4
2015-May-26 09:33N 35°10' E 121°45'1414.2
2015-May-26 08:33N 35°21' E 121°34'1313.2
2015-May-26 07:34N 35°31' E 121°24'1110.5
2015-May-26 06:33N 35°39' E 121°15'1312.9
2015-May-26 05:33N 35°48' E 121°05'41 1.0
2015-May-24 13:31N 36°05' E 120°19'0 0.0
2015-May-23 16:31N 36°05' E 120°19'  
2015-May-17 14:11N 35°38' E 121°16'2910.3
2015-May-17 11:21N 35°18' E 121°43'  

Dump ship's entire track history